East Northport, New York
Current Conditions -  °F | °C
As of 10:53 PM on Saturday 20 Dec 2014 (Local Time) from KFRG Reporting Station
Overcast Overcast  
Wind Chill: 29°   Ceiling: 2300
Heat Index: 33°   Visibility: 10mi
Dew Point: 22°   Wind: 5mph
Humidity: 64%   Direction: 330°NNW
Pressure: 30.29"   Gusts: NA
Location:  40.88°N, 73.31°W
Report Text: KFRG 210353Z 33004KT 10SM OVC023 01/M06 A3029 RMK AO2 SLP256 T00061056
Loading
Personal Weather Stations






























Interactive Weather Map New forecast layout! Learn more

10-Day Weather Forecast

Advertisements
Track Severe Weather on mobile